Time;durP1;ratioP1;P1;durP2;ratioP2;P2;SDS_P1;SDS_P2;PMS_P1;PMS_P2;Temp;Humidity;BMP_temperature;BMP_pressure;BME280_temperature;BME280_humidity;BME280_pressure;Samples;Min_cycle;Max_cycle;Signal;HPM_P1;HPM_P2
2022/11/08 00:02:25;;;;;;;4.97;0.32;;;;;;;12.39;100.00;99097.81;5056853;28;20115;-64
2022/11/08 00:04:51;;;;;;;3.28;0.60;;;;;;;12.46;100.00;99096.88;5055498;28;20374;-63
2022/11/08 00:15:32;;;;;;;10.07;0.85;;;;;;;12.46;100.00;99059.66;5051224;28;20115;-66
2022/11/08 00:17:57;;;;;;;8.85;0.93;;;;;;;12.52;100.00;99070.16;5056039;28;20027;-64
2022/11/08 00:20:22;;;;;;;14.98;1.15;;;;;;;12.54;100.00;99051.28;5051338;28;20032;-66
2022/11/08 00:22:48;;;;;;;6.88;1.13;;;;;;;12.57;100.00;99053.47;5054770;28;20071;-65
2022/11/08 00:25:13;;;;;;;5.72;0.60;;;;;;;12.61;100.00;99031.47;5050374;28;20072;-65
2022/11/08 00:27:38;;;;;;;2.25;1.08;;;;;;;12.60;100.00;99021.91;5050630;28;20162;-65
2022/11/08 00:30:04;;;;;;;12.38;2.17;;;;;;;12.65;100.00;99031.81;5053494;28;20040;-66
2022/11/08 00:32:30;;;;;;;3.90;0.77;;;;;;;12.66;100.00;99028.91;5034835;28;20066;-65
2022/11/08 00:34:55;;;;;;;4.70;1.27;;;;;;;12.60;100.00;99018.44;5056395;28;20390;-67
2022/11/08 00:37:22;;;;;;;3.72;1.25;;;;;;;12.62;100.00;99011.84;5056314;28;20060;-66
2022/11/08 00:39:48;;;;;;;2.58;0.65;;;;;;;12.66;100.00;99014.81;5052545;28;20105;-66
2022/11/08 00:42:13;;;;;;;22.17;2.65;;;;;;;12.67;100.00;98995.16;5057595;28;20028;-64
2022/11/08 00:44:39;;;;;;;4.47;0.50;;;;;;;12.67;100.00;99003.13;5059936;28;20497;-63
2022/11/08 00:47:04;;;;;;;3.33;1.17;;;;;;;12.70;100.00;98993.84;5051701;28;20477;-63
2022/11/08 00:49:30;;;;;;;3.90;0.68;;;;;;;12.70;100.00;98986.72;5056053;28;20513;-65
2022/11/08 00:51:55;;;;;;;20.40;2.08;;;;;;;12.67;100.00;98989.81;5056287;28;20074;-65
2022/11/08 00:54:21;;;;;;;8.25;1.02;;;;;;;12.68;100.00;98986.13;5058245;28;20146;-64
2022/11/08 00:56:47;;;;;;;4.13;0.50;;;;;;;12.70;100.00;98986.72;5057027;28;20029;-64
2022/11/08 00:59:15;;;;;;;1.20;0.30;;;;;;;12.74;100.00;98987.03;5050129;28;20396;-65
2022/11/08 01:01:41;;;;;;;4.82;0.73;;;;;;;12.74;100.00;98974.53;5056863;28;20450;-62
2022/11/08 01:04:08;;;;;;;2.53;0.25;;;;;;;12.74;100.00;98966.53;5038599;28;20048;-64
2022/11/08 01:06:34;;;;;;;9.80;2.53;;;;;;;12.75;100.00;98952.22;5054189;28;20374;-67
2022/11/08 01:08:59;;;;;;;4.10;0.90;;;;;;;12.77;100.00;98967.91;5056204;28;20032;-62
2022/11/08 01:11:25;;;;;;;8.48;1.33;;;;;;;12.80;100.00;98960.28;5056651;28;20040;-67
2022/11/08 01:13:51;;;;;;;7.88;1.50;;;;;;;12.80;100.00;98970.09;5052903;28;20033;-64
2022/11/08 01:16:20;;;;;;;12.73;1.10;;;;;;;12.80;100.00;98967.44;5054943;28;20033;-65
2022/11/08 01:18:47;;;;;;;6.95;0.65;;;;;;;12.85;100.00;98954.22;5056083;28;20029;-64
2022/11/08 01:21:13;;;;;;;8.60;1.30;;;;;;;12.90;100.00;98948.16;5056270;28;20387;-64
2022/11/08 01:23:39;;;;;;;8.50;2.53;;;;;;;12.87;100.00;98952.91;5051179;28;20036;-64
2022/11/08 01:26:08;;;;;;;4.13;1.17;;;;;;;12.83;100.00;98943.00;5055041;28;20384;-63
2022/11/08 01:28:34;;;;;;;1.45;0.40;;;;;;;12.84;100.00;98944.63;5062641;28;20149;-63
2022/11/08 01:31:08;;;;;;;6.65;0.50;;;;;;;12.86;100.00;98932.69;5057188;28;20425;-64
2022/11/08 01:33:34;;;;;;;8.45;1.83;;;;;;;12.85;100.00;98930.25;5060268;28;20119;-62
2022/11/08 01:35:59;;;;;;;6.53;0.70;;;;;;;12.86;100.00;98932.69;5058687;28;20096;-65
2022/11/08 01:38:25;;;;;;;4.50;0.93;;;;;;;12.97;100.00;98930.19;5039792;28;20039;-66
2022/11/08 01:40:51;;;;;;;3.92;1.65;;;;;;;12.95;100.00;98934.94;5058256;28;20064;-65
2022/11/08 01:43:28;;;;;;;5.45;0.68;;;;;;;13.01;100.00;98926.81;5062526;28;20662;-59
2022/11/08 01:46:09;;;;;;;2.80;1.00;;;;;;;13.06;100.00;98926.03;5064631;28;20543;-64
2022/11/08 01:48:38;;;;;;;4.85;0.52;;;;;;;13.06;100.00;98932.19;5055968;28;20122;-61
2022/11/08 01:51:07;;;;;;;10.30;1.90;;;;;;;13.12;100.00;98933.06;5061273;28;20115;-63
2022/11/08 01:53:33;;;;;;;6.22;2.35;;;;;;;13.12;100.00;98942.91;5062933;28;20591;-64
2022/11/08 01:55:59;;;;;;;4.30;1.10;;;;;;;13.03;100.00;98947.81;5036039;28;20033;-61
2022/11/08 01:58:30;;;;;;;6.63;0.68;;;;;;;13.01;100.00;98960.56;5067560;28;20155;-61
2022/11/08 02:00:57;;;;;;;3.78;0.65;;;;;;;12.88;100.00;98956.38;5056952;28;20028;-62
2022/11/08 02:03:23;;;;;;;11.32;1.63;;;;;;;12.81;100.00;98950.44;5061127;28;20024;-64
2022/11/08 02:05:50;;;;;;;3.10;1.20;;;;;;;12.75;100.00;98946.91;5058861;28;20115;-64
2022/11/08 02:08:24;;;;;;;6.25;0.68;;;;;;;12.72;100.00;98958.00;5048275;28;20536;-61
2022/11/08 02:10:53;;;;;;;5.13;0.95;;;;;;;12.66;100.00;98972.28;5043408;28;20059;-63
2022/11/08 02:13:22;;;;;;;2.10;0.30;;;;;;;12.63;100.00;98959.47;5045796;28;20090;-60
2022/11/08 02:15:49;;;;;;;6.53;0.40;;;;;;;12.57;100.00;98960.41;5065187;28;20025;-62
2022/11/08 02:18:17;;;;;;;5.93;0.95;;;;;;;12.49;100.00;98952.84;5070832;28;20091;-61
2022/11/08 02:21:16;;;;;;;8.88;1.42;;;;;;;12.42;100.00;98947.69;5065792;28;20048;-61
2022/11/08 02:23:54;;;;;;;3.30;1.00;;;;;;;12.30;100.00;98957.56;5048718;28;20642;-61
2022/11/08 02:26:32;;;;;;;4.03;0.28;;;;;;;12.23;100.00;98963.81;5050340;28;20020;-61
2022/11/08 02:28:58;;;;;;;12.90;1.73;;;;;;;12.17;100.00;98961.31;5061604;28;20517;-61
2022/11/08 02:31:24;;;;;;;2.08;0.70;;;;;;;12.13;100.00;98963.66;5049755;28;20281;-62
2022/11/08 02:33:50;;;;;;;3.17;0.77;;;;;;;12.13;100.00;98976.13;5063621;28;20029;-62
2022/11/08 02:36:22;;;;;;;7.50;1.38;;;;;;;12.19;100.00;98986.63;5064575;28;20518;-62
2022/11/08 02:38:51;;;;;;;;;;;;;;;12.20;100.00;98980.25;5054836;28;20039;-62
2022/11/08 02:41:17;;;;;;;8.93;1.58;;;;;;;12.15;100.00;98989.97;5064491;28;19920;-60
2022/11/08 02:43:42;;;;;;;9.25;1.20;;;;;;;12.13;100.00;98986.75;5063701;28;20032;-61
2022/11/08 02:46:08;;;;;;;4.90;0.32;;;;;;;12.08;100.00;98991.97;5061112;28;20145;-61
2022/11/08 02:48:33;;;;;;;5.15;0.60;;;;;;;12.05;100.00;98995.09;5062579;28;20055;-62
2022/11/08 02:50:59;;;;;;;1.20;1.00;;;;;;;11.99;100.00;98978.25;5064982;28;20025;-59
2022/11/08 02:53:24;;;;;;;3.53;0.15;;;;;;;11.94;100.00;98964.88;5069610;28;20021;-62
2022/11/08 02:55:49;;;;;;;2.95;0.20;;;;;;;11.90;100.00;98971.69;5062055;28;20482;-61
2022/11/08 02:58:15;;;;;;;2.65;0.30;;;;;;;11.85;100.00;98968.91;5064229;28;20028;-59
2022/11/08 03:00:40;;;;;;;2.33;0.17;;;;;;;11.79;100.00;98962.69;5062520;28;20404;-62
2022/11/08 03:03:06;;;;;;;4.25;0.82;;;;;;;11.76;100.00;98971.16;5062396;28;20622;-62
2022/11/08 03:05:31;;;;;;;3.33;0.40;;;;;;;11.72;100.00;98985.91;5053350;28;20494;-61
2022/11/08 03:07:57;;;;;;;5.85;0.93;;;;;;;11.72;100.00;98985.91;5056657;28;20028;-61
2022/11/08 03:10:25;;;;;;;5.35;0.68;;;;;;;11.72;100.00;98980.59;5069477;28;20388;-63
2022/11/08 03:12:58;;;;;;;5.65;1.67;;;;;;;11.66;100.00;98966.44;5065410;28;20025;-60
2022/11/08 03:15:24;;;;;;;1.33;0.45;;;;;;;11.63;100.00;98950.19;5060367;28;20436;-63
2022/11/08 03:17:49;;;;;;;2.20;0.35;;;;;;;11.58;100.00;98949.03;5052707;28;20028;-64
2022/11/08 03:20:14;;;;;;;4.30;0.80;;;;;;;11.59;100.00;98960.47;5064385;28;20091;-62
2022/11/08 03:22:40;;;;;;;3.72;0.10;;;;;;;11.56;100.00;98951.13;5063076;28;20031;-62
2022/11/08 03:25:05;;;;;;;1.63;0.60;;;;;;;11.54;100.00;98958.50;5060662;28;20474;-62
2022/11/08 03:27:31;;;;;;;5.70;1.92;;;;;;;11.51;100.00;98963.47;5061904;28;20039;-61
2022/11/08 03:29:56;;;;;;;7.57;0.43;;;;;;;11.46;100.00;98948.25;5061538;28;20450;-62
2022/11/08 03:32:21;;;;;;;4.60;1.27;;;;;;;11.40;100.00;98951.84;5054094;28;20674;-62
2022/11/08 03:34:47;;;;;;;2.88;0.35;;;;;;;11.35;100.00;98941.09;5064101;28;20025;-61
2022/11/08 03:37:12;;;;;;;6.60;0.20;;;;;;;11.32;100.00;98960.16;5036972;28;20037;-61
2022/11/08 03:39:37;;;;;;;10.00;0.80;;;;;;;11.32;100.00;98973.41;5052209;28;20115;-60
2022/11/08 03:42:03;;;;;;;2.40;0.95;;;;;;;11.32;100.00;98976.06;5056994;28;20040;-62
2022/11/08 03:44:31;;;;;;;4.38;1.65;;;;;;;11.29;100.00;98989.81;5051721;28;20039;-62
2022/11/08 03:47:00;;;;;;;7.32;0.73;;;;;;;11.26;100.00;98996.38;5048557;28;20525;-64
2022/11/08 03:49:26;;;;;;;5.97;0.35;;;;;;;11.21;100.00;98979.56;5064177;28;20059;-63
2022/11/08 03:51:54;;;;;;;5.40;0.98;;;;;;;11.23;100.00;98977.44;5060861;28;20017;-63
2022/11/08 03:54:19;;;;;;;15.32;1.27;;;;;;;11.23;100.00;98977.44;5065721;28;20040;-63
2022/11/08 03:56:45;;;;;;;11.23;1.92;;;;;;;11.27;100.00;98970.66;5062097;28;20069;-62
2022/11/08 03:59:11;;;;;;;2.22;0.10;;;;;;;11.31;100.00;98961.22;5060787;28;20029;-63
2022/11/08 04:01:37;;;;;;;3.08;1.33;;;;;;;11.29;100.00;98966.72;5061420;28;20029;-62
2022/11/08 04:04:03;;;;;;;2.30;0.10;;;;;;;11.26;100.00;98966.41;5057171;28;20025;-64
2022/11/08 04:06:29;;;;;;;1.95;0.20;;;;;;;11.22;100.00;98959.94;5066671;28;20081;-61
2022/11/08 04:08:54;;;;;;;4.82;1.05;;;;;;;11.18;100.00;98964.91;5065147;28;20104;-62
2022/11/08 04:16:47;;;;;;;1.52;0.70;;;;;;;10.96;100.00;98946.09;5060681;28;20127;-62
2022/11/08 04:21:57;;;;;;;0.90;0.40;;;;;;;11.04;100.00;98929.84;5055657;28;20393;-63
2022/11/08 04:24:22;;;;;;;4.15;0.45;;;;;;;10.99;100.00;98921.75;5068086;28;20036;-63
2022/11/08 04:26:47;;;;;;;1.85;0.20;;;;;;;10.88;100.00;98919.94;5063092;28;20024;-63
2022/11/08 04:29:13;;;;;;;6.38;0.30;;;;;;;10.80;100.00;98914.97;5059597;28;20106;-63
2022/11/08 04:31:38;;;;;;;3.65;0.20;;;;;;;10.78;100.00;98911.75;5050914;28;20540;-62
2022/11/08 04:34:05;;;;;;;3.00;0.73;;;;;;;10.74;100.00;98907.94;5063371;28;20108;-64
2022/11/08 04:36:32;;;;;;;7.03;0.60;;;;;;;10.76;100.00;98911.97;5051656;28;20059;-63
2022/11/08 04:38:58;;;;;;;5.28;1.20;;;;;;;10.84;100.00;98908.16;5061532;28;20044;-62
2022/11/08 04:41:24;;;;;;;2.67;0.13;;;;;;;10.90;100.00;98905.41;5060592;28;20500;-64
2022/11/08 04:43:51;;;;;;;5.15;0.30;;;;;;;10.88;100.00;98911.97;5036355;28;20482;-63
2022/11/08 04:46:19;;;;;;;5.95;0.73;;;;;;;10.90;100.00;98912.56;5054569;28;20037;-63
2022/11/08 04:48:45;;;;;;;5.78;0.65;;;;;;;10.96;100.00;98908.97;5052278;28;20032;-64
2022/11/08 04:51:11;;;;;;;2.15;1.40;;;;;;;11.03;100.00;98901.72;5048481;28;20032;-63
2022/11/08 04:53:37;;;;;;;5.40;0.38;;;;;;;11.04;100.00;98899.84;5059178;28;20029;-63
2022/11/08 04:56:05;;;;;;;3.70;0.60;;;;;;;11.06;100.00;98903.09;5053253;28;20043;-63
2022/11/08 04:58:35;;;;;;;3.97;1.15;;;;;;;11.07;100.00;98894.09;5055220;28;20140;-62
2022/11/08 05:01:02;;;;;;;6.57;0.30;;;;;;;11.06;100.00;98903.91;5061221;28;20025;-62
2022/11/08 05:03:29;;;;;;;3.35;1.17;;;;;;;11.06;100.00;98900.44;5050770;28;20067;-62
2022/11/08 05:05:54;;;;;;;11.18;2.13;;;;;;;11.02;100.00;98907.22;5055661;28;20032;-61
2022/11/08 05:08:19;;;;;;;7.10;0.20;;;;;;;10.99;100.00;98913.81;5057323;28;20045;-61
2022/11/08 05:10:45;;;;;;;1.95;0.47;;;;;;;10.97;100.00;98915.06;5054289;28;20033;-62
2022/11/08 05:13:10;;;;;;;2.38;0.15;;;;;;;11.00;100.00;98919.94;5057458;28;20036;-62
2022/11/08 05:15:35;;;;;;;3.03;0.82;;;;;;;10.98;100.00;98922.81;5055034;28;20052;-61
2022/11/08 05:18:01;;;;;;;9.68;0.90;;;;;;;10.98;100.00;98932.63;5050966;28;20100;-62
2022/11/08 05:23:22;;;;;;;3.33;0.08;;;;;;;10.92;100.00;98937.00;5061100;28;20406;-63
2022/11/08 05:25:48;;;;;;;8.02;0.73;;;;;;;10.84;100.00;98940.81;5060558;28;20032;-60
2022/11/08 05:28:13;;;;;;;4.90;1.52;;;;;;;10.77;100.00;98931.34;5061390;28;20584;-62
2022/11/08 05:30:39;;;;;;;5.03;1.38;;;;;;;10.68;100.00;98946.78;5055802;28;20131;-63
2022/11/08 05:33:04;;;;;;;5.45;0.35;;;;;;;10.63;100.00;98941.34;5058883;28;20733;-62
2022/11/08 05:35:31;;;;;;;6.78;1.20;;;;;;;10.63;100.00;98944.81;5038418;28;20458;-61
2022/11/08 05:37:56;;;;;;;2.22;0.57;;;;;;;10.60;100.00;98936.50;5058902;28;20047;-61
2022/11/08 05:40:22;;;;;;;6.63;0.57;;;;;;;10.50;100.00;98941.56;5057482;28;20025;-61
2022/11/08 05:42:47;;;;;;;9.90;0.98;;;;;;;10.43;100.00;98942.50;5056837;28;20037;-59
2022/11/08 05:45:12;;;;;;;4.55;1.35;;;;;;;10.45;100.00;98948.38;5056499;28;20059;-61
2022/11/08 05:47:38;;;;;;;5.88;0.70;;;;;;;10.46;100.00;98949.97;5060638;28;20035;-61
2022/11/08 05:50:04;;;;;;;4.22;0.40;;;;;;;10.47;100.00;98950.78;5063688;28;20032;-63
2022/11/08 05:52:29;;;;;;;3.60;0.32;;;;;;;10.46;100.00;98957.13;5054302;28;20509;-60
2022/11/08 05:54:54;;;;;;;5.65;0.30;;;;;;;10.53;100.00;98952.50;5050112;28;20363;-62
2022/11/08 05:57:21;;;;;;;4.15;1.02;;;;;;;10.57;100.00;98952.88;5058388;28;20374;-60
2022/11/08 05:59:46;;;;;;;4.18;0.90;;;;;;;10.57;100.00;98952.88;5056752;28;20082;-62
2022/11/08 06:02:12;;;;;;;4.68;0.38;;;;;;;10.55;100.00;98945.13;5054662;28;20395;-61
2022/11/08 06:04:37;;;;;;;2.33;0.77;;;;;;;10.56;100.00;98946.78;5057193;28;21765;-62
2022/11/08 06:07:02;;;;;;;9.23;2.40;;;;;;;10.56;100.00;98956.53;5056629;28;20075;-62
2022/11/08 06:09:28;;;;;;;5.03;0.95;;;;;;;10.56;100.00;98952.06;5058567;28;20029;-59
2022/11/08 06:11:53;;;;;;;6.43;0.50;;;;;;;10.59;100.00;98946.31;5056304;28;20709;-61
2022/11/08 06:14:18;;;;;;;3.25;0.35;;;;;;;10.54;100.00;98948.84;5058880;28;20513;-60
2022/11/08 06:16:44;;;;;;;5.70;0.68;;;;;;;10.55;100.00;98945.13;5057495;28;20106;-59
2022/11/08 06:19:09;;;;;;;5.03;1.20;;;;;;;10.61;100.00;98954.00;5055117;28;20156;-55
2022/11/08 06:21:34;;;;;;;5.85;0.45;;;;;;;10.63;100.00;98960.72;5054805;28;20025;-61
2022/11/08 06:24:00;;;;;;;7.30;0.45;;;;;;;10.60;100.00;98952.41;5049559;28;20128;-61
2022/11/08 06:26:25;;;;;;;6.57;0.85;;;;;;;10.59;100.00;98959.56;5055925;28;20062;-62
2022/11/08 06:28:50;;;;;;;4.15;1.88;;;;;;;10.55;100.00;98955.75;5059442;28;20095;-61
2022/11/08 06:31:16;;;;;;;1.38;0.30;;;;;;;10.49;100.00;98964.63;5050969;28;20024;-59
2022/11/08 06:33:41;;;;;;;3.08;0.10;;;;;;;10.44;100.00;98965.28;5052859;28;20025;-61
2022/11/08 06:36:07;;;;;;;2.67;0.20;;;;;;;10.44;100.00;98961.84;5058573;28;20083;-60
2022/11/08 06:38:32;;;;;;;5.75;1.33;;;;;;;10.45;100.00;98961.63;5059670;28;20024;-61
2022/11/08 06:40:59;;;;;;;8.20;0.60;;;;;;;10.47;100.00;98964.03;5056425;28;20064;-62
2022/11/08 06:43:24;;;;;;;5.25;0.73;;;;;;;10.39;100.00;98959.06;5051715;28;20032;-62
2022/11/08 06:45:50;;;;;;;4.30;0.28;;;;;;;10.35;100.00;98964.00;5057258;28;20385;-62
2022/11/08 06:48:15;;;;;;;5.55;0.95;;;;;;;10.38;100.00;98966.19;5063354;28;20469;-61
2022/11/08 06:50:41;;;;;;;3.15;0.32;;;;;;;10.40;100.00;98969.44;5058592;28;20028;-62
2022/11/08 06:53:09;;;;;;;5.50;1.25;;;;;;;10.47;100.00;98964.81;5056314;28;20025;-62
2022/11/08 06:55:35;;;;;;;5.65;0.68;;;;;;;10.44;100.00;98962.63;5053261;28;21454;-62
2022/11/08 06:58:01;;;;;;;5.25;0.47;;;;;;;10.41;100.00;98959.66;5056199;28;20020;-63
2022/11/08 07:00:27;;;;;;;5.97;1.42;;;;;;;10.35;100.00;98971.13;5042017;28;20053;-62
2022/11/08 07:02:54;;;;;;;7.63;2.35;;;;;;;10.35;100.00;98971.13;5054379;28;20063;-61
2022/11/08 07:05:20;;;;;;;7.97;2.20;;;;;;;10.37;100.00;98969.06;5050835;28;20033;-60
2022/11/08 07:07:50;;;;;;;9.88;0.98;;;;;;;10.45;100.00;98968.75;5060750;28;20032;-60
2022/11/08 07:10:17;;;;;;;3.58;0.50;;;;;;;10.46;100.00;98959.78;5033466;28;20037;-62
2022/11/08 07:12:42;;;;;;;12.20;1.95;;;;;;;10.47;100.00;98969.31;5055341;28;20041;-59
2022/11/08 07:15:08;;;;;;;6.88;2.17;;;;;;;10.47;100.00;98974.63;5054844;28;20039;-60
2022/11/08 07:17:33;;;;;;;9.07;0.90;;;;;;;10.44;100.00;98972.44;5055200;28;20036;-60
2022/11/08 07:19:59;;;;;;;15.65;1.95;;;;;;;10.46;100.00;98968.53;5051075;28;20024;-63
2022/11/08 07:22:24;;;;;;;7.53;1.60;;;;;;;10.51;100.00;98988.22;5051654;28;20020;-62
2022/11/08 07:24:50;;;;;;;12.00;2.15;;;;;;;10.53;100.00;98984.31;5060505;28;20059;-61
2022/11/08 07:27:15;;;;;;;12.20;2.60;;;;;;;10.54;100.00;98985.94;5047329;28;20117;-61
2022/11/08 07:29:40;;;;;;;8.23;2.13;;;;;;;10.57;100.00;98988.13;5049770;28;20036;-62
2022/11/08 07:32:06;;;;;;;7.82;2.95;;;;;;;10.62;100.00;98988.25;5056727;28;20048;-61
2022/11/08 07:34:32;;;;;;;8.90;2.05;;;;;;;10.63;100.00;98989.88;5056456;28;20032;-62
2022/11/08 07:36:57;;;;;;;10.60;1.55;;;;;;;10.61;100.00;98986.66;5055323;28;20512;-62
2022/11/08 07:39:22;;;;;;;7.25;1.10;;;;;;;10.59;100.00;98986.06;5051421;28;20427;-62
2022/11/08 07:41:48;;;;;;;5.97;1.20;;;;;;;10.49;100.00;98977.88;5051533;28;20040;-61
2022/11/08 07:44:13;;;;;;;9.55;1.92;;;;;;;10.42;100.00;98982.44;5056318;28;20032;-60
2022/11/08 07:46:38;;;;;;;8.10;0.95;;;;;;;10.41;100.00;98980.84;5054489;28;20029;-61
2022/11/08 07:49:04;;;;;;;8.75;1.05;;;;;;;10.39;100.00;98974.97;5056234;28;20116;-61
2022/11/08 07:51:29;;;;;;;18.65;2.70;;;;;;;10.36;100.00;98981.50;5051519;28;20366;-62
2022/11/08 07:53:55;;;;;;;11.15;0.68;;;;;;;10.41;100.00;98986.94;5052472;28;20039;-61
2022/11/08 07:56:20;;;;;;;4.72;1.38;;;;;;;10.44;100.00;98975.09;5052546;28;20452;-58
2022/11/08 07:58:45;;;;;;;7.85;1.52;;;;;;;10.47;100.00;98985.22;5055035;28;20060;-62
2022/11/08 08:01:11;;;;;;;11.40;2.30;;;;;;;10.39;100.00;98975.75;5053262;28;20167;-62
2022/11/08 08:03:36;;;;;;;19.00;3.35;;;;;;;10.36;100.00;98984.16;5057195;28;20039;-63
2022/11/08 08:06:02;;;;;;;26.75;4.88;;;;;;;10.38;100.00;98987.41;5056689;28;20252;-63
2022/11/08 08:08:28;;;;;;;13.90;1.58;;;;;;;10.36;100.00;98986.00;5055553;28;20039;-63
2022/11/08 08:11:00;;;;;;;16.77;2.35;;;;;;;10.42;100.00;98987.75;5047298;28;20031;-62
2022/11/08 08:13:26;;;;;;;13.05;3.50;;;;;;;10.44;100.00;98983.84;5051406;28;20024;-63
2022/11/08 08:15:51;;;;;;;8.45;2.00;;;;;;;10.43;100.00;98994.69;5051799;28;20021;-64
2022/11/08 08:18:19;;;;;;;13.70;2.08;;;;;;;10.44;100.00;98989.13;5052261;28;20036;-63
2022/11/08 08:20:45;;;;;;;12.30;2.78;;;;;;;10.48;100.00;98986.84;5053543;28;20470;-63
2022/11/08 08:23:11;;;;;;;13.82;1.80;;;;;;;10.48;100.00;98982.34;5056002;28;20044;-63
2022/11/08 08:25:36;;;;;;;13.27;3.25;;;;;;;10.48;100.00;98992.97;5033986;28;20386;-63
2022/11/08 08:28:04;;;;;;;15.82;3.05;;;;;;;10.47;100.00;98988.69;5058846;28;20044;-62
2022/11/08 08:30:30;;;;;;;20.20;4.32;;;;;;;10.55;100.00;98992.03;5049824;28;20029;-62
2022/11/08 08:33:11;;;;;;;20.27;2.38;;;;;;;10.63;100.00;98986.41;5032576;28;20021;-63
2022/11/08 08:35:38;;;;;;;12.43;3.13;;;;;;;10.68;100.00;98997.94;5051100;28;20024;-58
2022/11/08 08:38:04;;;;;;;11.65;1.55;;;;;;;10.81;100.00;98982.88;5050850;28;20277;-61
2022/11/08 08:40:30;;;;;;;12.23;1.33;;;;;;;10.87;100.00;98995.22;5055707;28;20053;-63
2022/11/08 08:42:59;;;;;;;11.07;1.55;;;;;;;10.97;100.00;98998.13;5058312;28;20060;-63
2022/11/08 08:45:26;;;;;;;12.52;1.63;;;;;;;11.02;100.00;98987.63;5061617;28;20033;-64
2022/11/08 08:47:52;;;;;;;13.82;1.77;;;;;;;11.08;100.00;98976.09;5062306;28;20029;-63
2022/11/08 08:50:18;;;;;;;7.95;3.25;;;;;;;11.16;100.00;98985.53;5052717;28;20082;-63
2022/11/08 08:52:44;;;;;;;9.25;1.70;;;;;;;11.14;100.00;98984.97;5056801;28;20437;-64
2022/11/08 08:55:09;;;;;;;10.15;2.58;;;;;;;11.11;100.00;98975.63;5055965;28;20036;-63
2022/11/08 08:57:34;;;;;;;11.35;3.80;;;;;;;11.11;100.00;98985.44;5053178;28;20077;-61
2022/11/08 08:59:59;;;;;;;21.73;4.20;;;;;;;11.14;100.00;98977.81;5056799;28;20028;-64
2022/11/08 09:02:25;;;;;;;14.45;4.38;;;;;;;11.18;100.00;98980.00;5067003;28;20043;-63
2022/11/08 09:04:50;;;;;;;12.27;1.48;;;;;;;11.20;100.00;98977.91;5041620;28;20462;-61
2022/11/08 09:07:15;;;;;;;11.20;2.83;;;;;;;11.19;100.00;98981.63;5053498;28;20500;-62
2022/11/08 09:09:41;;;;;;;13.98;2.55;;;;;;;11.17;100.00;98973.09;5054257;28;20501;-62
2022/11/08 09:12:06;;;;;;;7.55;2.80;;;;;;;11.19;100.00;98981.63;5060762;28;20373;-63
2022/11/08 09:14:31;;;;;;;8.88;1.90;;;;;;;11.16;100.00;98995.34;5053478;28;20093;-62
2022/11/08 09:16:57;;;;;;;27.42;4.65;;;;;;;11.14;100.00;98990.28;5057124;28;20100;-62
2022/11/08 09:19:22;;;;;;;10.18;1.58;;;;;;;11.10;100.00;98992.59;5056052;28;20028;-63
2022/11/08 09:21:48;;;;;;;10.32;0.98;;;;;;;11.02;100.00;98992.94;5056196;28;20064;-65
2022/11/08 09:24:13;;;;;;;14.60;1.85;;;;;;;10.89;100.00;98985.19;5062223;28;20151;-63
2022/11/08 09:26:38;;;;;;;14.63;1.20;;;;;;;10.78;100.00;98993.94;5058928;28;20025;-62
2022/11/08 09:29:04;;;;;;;11.13;1.27;;;;;;;10.77;100.00;98995.78;5057565;28;20057;-61
2022/11/08 09:31:29;;;;;;;12.60;1.90;;;;;;;10.81;100.00;98991.63;5050980;28;20029;-62
2022/11/08 09:33:54;;;;;;;8.57;1.80;;;;;;;10.92;100.00;99000.66;5058810;28;20039;-62
2022/11/08 09:36:20;;;;;;;20.77;2.33;;;;;;;11.06;100.00;99002.03;5066978;28;20104;-63
2022/11/08 09:38:45;;;;;;;10.45;0.73;;;;;;;11.18;100.00;99001.22;5061182;28;20043;-63
2022/11/08 09:41:27;;;;;;;12.45;3.25;;;;;;;11.21;100.00;99008.75;5060199;28;20031;-64
2022/11/08 09:44:07;;;;;;;12.43;3.58;;;;;;;11.14;100.00;99004.34;5063919;28;20056;-63
2022/11/08 09:46:49;;;;;;;4.70;0.90;;;;;;;11.10;100.00;98994.41;5066784;28;20040;-65
2022/11/08 09:49:20;;;;;;;;;;;;;;;11.12;100.00;99002.94;5057177;28;20043;-63
2022/11/08 09:51:46;;;;;;;13.18;1.98;;;;;;;11.14;100.00;99001.69;5061069;28;19920;-63
2022/11/08 09:54:26;;;;;;;11.50;1.42;;;;;;;11.18;100.00;98999.41;5053806;28;20039;-65
2022/11/08 09:56:54;;;;;;;7.68;2.00;;;;;;;11.13;100.00;98993.97;5036871;28;20390;-64
2022/11/08 09:59:31;;;;;;;14.60;4.15;;;;;;;11.20;100.00;98994.63;5056715;28;20028;-62
2022/11/08 10:01:56;;;;;;;13.20;0.98;;;;;;;11.35;100.00;99002.13;5054322;28;20481;-64
2022/11/08 10:04:27;;;;;;;9.32;0.85;;;;;;;11.51;100.00;99003.28;5063744;28;20081;-64
2022/11/08 10:07:12;;;;;;;6.20;1.13;;;;;;;11.65;100.00;99011.81;5057391;28;20035;-62
2022/11/08 10:09:55;;;;;;;8.77;2.15;;;;;;;11.79;100.00;99000.69;5059063;28;20032;-62
2022/11/08 10:13:08;;;;;;;11.10;1.95;;;;;;;11.87;100.00;98988.91;5053803;28;20513;-61
2022/11/08 10:15:45;;;;;;;6.65;0.40;;;;;;;11.94;100.00;98984.28;5038460;28;20033;-62
2022/11/08 10:18:47;;;;;;;13.55;1.80;;;;;;;12.07;100.00;98979.75;5061904;28;20020;-65
2022/11/08 10:21:46;;;;;;;9.80;1.10;;;;;;;12.18;100.00;98976.22;5060819;28;20098;-64
2022/11/08 10:24:20;;;;;;;5.55;0.80;;;;;;;12.20;100.00;98976.78;5054535;28;20103;-65
2022/11/08 10:26:48;;;;;;;7.35;1.25;;;;;;;12.18;100.00;98960.28;5065880;28;20051;-63
2022/11/08 10:29:21;;;;;;;16.02;2.35;;;;;;;12.22;100.00;98951.59;5066889;28;20051;-62
2022/11/08 10:31:51;;;;;;;5.05;1.50;;;;;;;12.36;100.00;98952.09;5068386;28;20032;-63
2022/11/08 10:34:23;;;;;;;9.52;1.38;;;;;;;12.54;100.00;98960.91;5058947;28;20036;-58
2022/11/08 10:36:53;;;;;;;6.53;1.13;;;;;;;12.79;100.00;98945.34;5063449;28;20040;-65
2022/11/08 10:39:25;;;;;;;8.75;2.85;;;;;;;12.77;100.00;98936.00;5065706;28;20156;-63
2022/11/08 10:42:12;;;;;;;8.40;1.85;;;;;;;12.78;100.00;98927.00;5058506;28;20070;-63
2022/11/08 10:44:40;;;;;;;1.92;0.73;;;;;;;12.80;100.00;98931.03;5053701;28;20036;-63
2022/11/08 10:47:12;;;;;;;13.95;2.33;;;;;;;12.64;100.00;98929.94;5062517;28;20054;-66
2022/11/08 10:49:40;;;;;;;5.85;1.48;;;;;;;12.58;100.00;98932.78;5048586;28;20036;-63
2022/11/08 10:52:11;;;;;;;13.25;2.35;;;;;;;12.46;100.00;98937.38;5057429;28;20028;-64
2022/11/08 10:54:52;;;;;;;6.47;1.35;;;;;;;12.37;100.00;98940.44;5056774;28;20090;-64
2022/11/08 10:57:26;;;;;;;9.13;2.17;;;;;;;12.36;100.00;98938.00;5063442;28;20537;-63
2022/11/08 10:59:53;;;;;;;9.43;1.90;;;;;;;12.32;100.00;98920.94;5064987;28;20364;-62
2022/11/08 11:02:26;;;;;;;20.27;3.08;;;;;;;12.62;100.00;98944.53;5056052;28;20060;-63
2022/11/08 11:04:55;;;;;;;7.00;1.10;;;;;;;12.85;100.00;98916.97;5059874;28;20036;-65
2022/11/08 11:07:29;;;;;;;10.18;0.77;;;;;;;13.08;100.00;98913.31;5060688;28;20417;-66
2022/11/08 11:09:55;;;;;;;9.43;0.68;;;;;;;13.20;100.00;98911.34;5041937;28;20151;-63
2022/11/08 11:12:20;;;;;;;7.18;1.45;;;;;;;13.35;100.00;98905.44;5057774;28;20105;-61
2022/11/08 11:14:54;;;;;;;6.70;1.45;;;;;;;13.48;100.00;98899.75;5057299;28;20033;-64
2022/11/08 11:17:27;;;;;;;5.63;1.33;;;;;;;13.67;100.00;98894.91;5054242;28;20047;-63
2022/11/08 11:19:55;;;;;;;5.07;0.40;;;;;;;13.92;100.00;98889.03;5065767;28;20347;-63
2022/11/08 11:22:33;;;;;;;6.05;1.00;;;;;;;13.85;100.00;98883.09;5062040;28;20085;-63
2022/11/08 11:25:13;;;;;;;8.90;1.83;;;;;;;13.72;100.00;98870.97;5051668;28;20394;-62
2022/11/08 11:27:40;;;;;;;9.45;1.45;;;;;;;13.53;100.00;98886.50;5061635;28;20075;-63
2022/11/08 11:30:21;;;;;;;6.55;0.77;;;;;;;13.56;100.00;98890.53;5062696;28;20103;-65
2022/11/08 11:33:13;;;;;;;8.90;1.45;;;;;;;13.53;100.00;98896.34;5061260;28;20025;-64
2022/11/08 11:35:53;;;;;;;10.45;2.72;;;;;;;13.55;100.00;98880.91;5064316;28;20047;-65
2022/11/08 11:38:29;;;;;;;5.82;0.95;;;;;;;13.66;100.00;98872.00;5067313;28;20090;-62
2022/11/08 11:41:03;;;;;;;5.38;0.90;;;;;;;13.66;100.00;98864.00;5058754;28;20259;-64
2022/11/08 11:43:42;;;;;;;7.20;1.08;;;;;;;13.66;100.00;98868.53;5055124;28;20095;-64
2022/11/08 11:46:10;;;;;;;10.40;2.05;;;;;;;13.69;100.00;98855.50;5057346;28;20119;-61
2022/11/08 11:48:44;;;;;;;8.93;1.75;;;;;;;13.65;100.00;98853.59;5056900;28;20025;-62